sensor_id;sensor_type;location;lat;lon;timestamp;temperature;humidity
4354;DHT22;11018;51.258;6.806;2022-12-18T00:00:46;-2.60;65.00
4354;DHT22;11018;51.258;6.806;2022-12-18T00:03:13;-2.60;66.30
4354;DHT22;11018;51.258;6.806;2022-12-18T00:05:50;-2.60;64.80
4354;DHT22;11018;51.258;6.806;2022-12-18T00:08:16;-2.70;64.90
4354;DHT22;11018;51.258;6.806;2022-12-18T00:10:43;-2.60;64.60
4354;DHT22;11018;51.258;6.806;2022-12-18T00:13:09;-2.60;62.70
4354;DHT22;11018;51.258;6.806;2022-12-18T00:15:35;-2.70;64.10
4354;DHT22;11018;51.258;6.806;2022-12-18T00:18:01;-2.60;65.40
4354;DHT22;11018;51.258;6.806;2022-12-18T00:20:26;-2.60;63.00
4354;DHT22;11018;51.258;6.806;2022-12-18T00:22:53;-2.70;63.70
4354;DHT22;11018;51.258;6.806;2022-12-18T00:25:18;-2.70;62.00
4354;DHT22;11018;51.258;6.806;2022-12-18T00:27:44;-2.70;62.80
4354;DHT22;11018;51.258;6.806;2022-12-18T00:30:10;-2.60;60.00
4354;DHT22;11018;51.258;6.806;2022-12-18T00:32:36;-2.70;60.40
4354;DHT22;11018;51.258;6.806;2022-12-18T00:35:01;-2.60;62.00
4354;DHT22;11018;51.258;6.806;2022-12-18T00:37:27;-2.60;61.20
4354;DHT22;11018;51.258;6.806;2022-12-18T00:39:52;-2.50;60.70
4354;DHT22;11018;51.258;6.806;2022-12-18T00:42:18;-2.50;59.80
4354;DHT22;11018;51.258;6.806;2022-12-18T00:45:02;-2.50;58.40
4354;DHT22;11018;51.258;6.806;2022-12-18T00:47:28;-2.60;60.70
4354;DHT22;11018;51.258;6.806;2022-12-18T00:49:53;-2.50;60.70
4354;DHT22;11018;51.258;6.806;2022-12-18T00:52:19;-2.60;61.60
4354;DHT22;11018;51.258;6.806;2022-12-18T00:54:45;-2.60;59.60
4354;DHT22;11018;51.258;6.806;2022-12-18T00:57:10;-2.60;59.40
4354;DHT22;11018;51.258;6.806;2022-12-18T00:59:36;-2.60;61.60
4354;DHT22;11018;51.258;6.806;2022-12-18T01:02:01;-2.60;60.90
4354;DHT22;11018;51.258;6.806;2022-12-18T01:04:27;-2.60;61.00
4354;DHT22;11018;51.258;6.806;2022-12-18T01:06:52;-2.60;61.20
4354;DHT22;11018;51.258;6.806;2022-12-18T01:09:18;-2.70;63.10
4354;DHT22;11018;51.258;6.806;2022-12-18T01:11:43;-2.80;64.00
4354;DHT22;11018;51.258;6.806;2022-12-18T01:14:09;-2.80;66.40
4354;DHT22;11018;51.258;6.806;2022-12-18T01:16:35;-2.70;66.30
4354;DHT22;11018;51.258;6.806;2022-12-18T01:19:00;-2.80;64.90
4354;DHT22;11018;51.258;6.806;2022-12-18T01:21:26;-2.90;65.60
4354;DHT22;11018;51.258;6.806;2022-12-18T01:23:54;-2.90;65.90
4354;DHT22;11018;51.258;6.806;2022-12-18T01:26:20;-2.80;64.30
4354;DHT22;11018;51.258;6.806;2022-12-18T01:28:45;-2.90;65.50
4354;DHT22;11018;51.258;6.806;2022-12-18T01:33:47;-2.80;62.30
4354;DHT22;11018;51.258;6.806;2022-12-18T01:36:27;-2.80;60.40
4354;DHT22;11018;51.258;6.806;2022-12-18T01:38:55;-2.80;62.00
4354;DHT22;11018;51.258;6.806;2022-12-18T01:41:24;-2.80;63.40
4354;DHT22;11018;51.258;6.806;2022-12-18T01:43:55;-2.80;61.90
4354;DHT22;11018;51.258;6.806;2022-12-18T01:46:23;-2.80;62.10
4354;DHT22;11018;51.258;6.806;2022-12-18T01:48:58;-2.80;63.90
4354;DHT22;11018;51.258;6.806;2022-12-18T01:51:26;-2.80;63.50
4354;DHT22;11018;51.258;6.806;2022-12-18T01:53:52;-2.90;63.00
4354;DHT22;11018;51.258;6.806;2022-12-18T01:56:20;-2.90;62.10
4354;DHT22;11018;51.258;6.806;2022-12-18T02:01:23;-2.90;60.90
4354;DHT22;11018;51.258;6.806;2022-12-18T02:03:49;-2.90;60.20
4354;DHT22;11018;51.258;6.806;2022-12-18T02:06:34;-2.90;60.30
4354;DHT22;11018;51.258;6.806;2022-12-18T02:09:13;-2.90;60.60
4354;DHT22;11018;51.258;6.806;2022-12-18T02:11:49;-2.90;60.60
4354;DHT22;11018;51.258;6.806;2022-12-18T02:14:28;-3.00;60.70
4354;DHT22;11018;51.258;6.806;2022-12-18T02:22:31;-2.80;61.70
4354;DHT22;11018;51.258;6.806;2022-12-18T02:25:24;-2.90;61.30
4354;DHT22;11018;51.258;6.806;2022-12-18T02:27:52;-2.90;59.40
4354;DHT22;11018;51.258;6.806;2022-12-18T02:30:19;-2.90;60.50
4354;DHT22;11018;51.258;6.806;2022-12-18T02:32:50;-3.00;61.10
4354;DHT22;11018;51.258;6.806;2022-12-18T02:35:23;-2.90;61.40
4354;DHT22;11018;51.258;6.806;2022-12-18T02:37:53;-3.00;61.60
4354;DHT22;11018;51.258;6.806;2022-12-18T02:40:21;-2.90;60.70
4354;DHT22;11018;51.258;6.806;2022-12-18T02:42:47;-2.80;60.00
4354;DHT22;11018;51.258;6.806;2022-12-18T02:47:43;-2.90;60.40
4354;DHT22;11018;51.258;6.806;2022-12-18T02:50:30;-2.90;60.20
4354;DHT22;11018;51.258;6.806;2022-12-18T02:53:22;-2.90;60.10
4354;DHT22;11018;51.258;6.806;2022-12-18T02:56:02;-2.80;60.60
4354;DHT22;11018;51.258;6.806;2022-12-18T03:04:14;-2.70;60.90
4354;DHT22;11018;51.258;6.806;2022-12-18T03:06:45;-2.70;60.00
4354;DHT22;11018;51.258;6.806;2022-12-18T03:09:16;-2.60;59.40
4354;DHT22;11018;51.258;6.806;2022-12-18T03:11:46;-2.60;59.20
4354;DHT22;11018;51.258;6.806;2022-12-18T03:14:34;-2.60;58.80
4354;DHT22;11018;51.258;6.806;2022-12-18T03:17:06;-2.60;58.00
4354;DHT22;11018;51.258;6.806;2022-12-18T03:19:33;-2.70;58.70
4354;DHT22;11018;51.258;6.806;2022-12-18T03:22:01;-2.60;58.30
4354;DHT22;11018;51.258;6.806;2022-12-18T03:24:29;-2.70;58.60
4354;DHT22;11018;51.258;6.806;2022-12-18T03:27:09;-2.70;59.60
4354;DHT22;11018;51.258;6.806;2022-12-18T03:29:41;-2.70;60.10
4354;DHT22;11018;51.258;6.806;2022-12-18T03:32:12;-2.70;60.30
4354;DHT22;11018;51.258;6.806;2022-12-18T03:34:42;-2.70;61.80
4354;DHT22;11018;51.258;6.806;2022-12-18T03:37:09;-2.60;60.20
4354;DHT22;11018;51.258;6.806;2022-12-18T03:39:36;-2.70;58.90
4354;DHT22;11018;51.258;6.806;2022-12-18T03:42:10;-2.70;60.10
4354;DHT22;11018;51.258;6.806;2022-12-18T03:44:53;-2.70;60.00
4354;DHT22;11018;51.258;6.806;2022-12-18T03:52:50;-2.60;59.00
4354;DHT22;11018;51.258;6.806;2022-12-18T03:55:19;-2.70;59.40
4354;DHT22;11018;51.258;6.806;2022-12-18T03:57:47;-2.70;60.50
4354;DHT22;11018;51.258;6.806;2022-12-18T04:00:15;-2.80;60.50
4354;DHT22;11018;51.258;6.806;2022-12-18T04:02:45;-2.80;60.30
4354;DHT22;11018;51.258;6.806;2022-12-18T04:05:13;-2.70;60.40
4354;DHT22;11018;51.258;6.806;2022-12-18T04:07:39;-2.80;60.50
4354;DHT22;11018;51.258;6.806;2022-12-18T04:10:07;-2.90;61.80
4354;DHT22;11018;51.258;6.806;2022-12-18T04:12:33;-2.90;61.70
4354;DHT22;11018;51.258;6.806;2022-12-18T04:14:59;-2.90;62.50
4354;DHT22;11018;51.258;6.806;2022-12-18T04:17:24;-2.90;62.20
4354;DHT22;11018;51.258;6.806;2022-12-18T04:19:50;-2.90;63.10
4354;DHT22;11018;51.258;6.806;2022-12-18T04:22:16;-2.90;63.10
4354;DHT22;11018;51.258;6.806;2022-12-18T04:24:41;-2.90;63.00
4354;DHT22;11018;51.258;6.806;2022-12-18T04:27:07;-2.80;61.00
4354;DHT22;11018;51.258;6.806;2022-12-18T04:29:33;-2.90;61.30
4354;DHT22;11018;51.258;6.806;2022-12-18T04:31:58;-3.00;62.30
4354;DHT22;11018;51.258;6.806;2022-12-18T04:34:24;-3.00;62.30
4354;DHT22;11018;51.258;6.806;2022-12-18T04:36:49;-3.00;62.80
4354;DHT22;11018;51.258;6.806;2022-12-18T04:39:15;-2.90;62.60
4354;DHT22;11018;51.258;6.806;2022-12-18T04:41:41;-3.00;63.30
4354;DHT22;11018;51.258;6.806;2022-12-18T04:44:06;-2.90;63.20
4354;DHT22;11018;51.258;6.806;2022-12-18T04:46:32;-3.00;63.40
4354;DHT22;11018;51.258;6.806;2022-12-18T04:48:57;-2.90;63.90
4354;DHT22;11018;51.258;6.806;2022-12-18T04:51:23;-2.90;63.80
4354;DHT22;11018;51.258;6.806;2022-12-18T04:53:48;-3.00;63.00
4354;DHT22;11018;51.258;6.806;2022-12-18T04:56:15;-3.00;63.80
4354;DHT22;11018;51.258;6.806;2022-12-18T04:58:43;-3.00;63.80
4354;DHT22;11018;51.258;6.806;2022-12-18T05:01:09;-3.00;62.90
4354;DHT22;11018;51.258;6.806;2022-12-18T05:03:35;-3.10;64.30
4354;DHT22;11018;51.258;6.806;2022-12-18T05:06:02;-3.00;64.00
4354;DHT22;11018;51.258;6.806;2022-12-18T05:08:28;-3.00;64.00
4354;DHT22;11018;51.258;6.806;2022-12-18T05:10:59;-3.00;64.60
4354;DHT22;11018;51.258;6.806;2022-12-18T05:13:25;-3.00;65.20
4354;DHT22;11018;51.258;6.806;2022-12-18T05:15:52;-3.00;64.40
4354;DHT22;11018;51.258;6.806;2022-12-18T05:18:17;-3.00;64.10
4354;DHT22;11018;51.258;6.806;2022-12-18T05:20:43;-3.10;64.80
4354;DHT22;11018;51.258;6.806;2022-12-18T05:23:09;-3.10;65.50
4354;DHT22;11018;51.258;6.806;2022-12-18T05:25:34;-3.10;65.60
4354;DHT22;11018;51.258;6.806;2022-12-18T05:28:00;-3.10;66.60
4354;DHT22;11018;51.258;6.806;2022-12-18T05:30:25;-3.10;66.10
4354;DHT22;11018;51.258;6.806;2022-12-18T05:32:51;-3.10;64.90
4354;DHT22;11018;51.258;6.806;2022-12-18T05:35:16;-3.10;64.10
4354;DHT22;11018;51.258;6.806;2022-12-18T05:37:42;-3.10;64.10
4354;DHT22;11018;51.258;6.806;2022-12-18T05:40:08;-3.00;63.60
4354;DHT22;11018;51.258;6.806;2022-12-18T05:42:33;-3.10;63.60
4354;DHT22;11018;51.258;6.806;2022-12-18T05:44:59;-3.10;63.70
4354;DHT22;11018;51.258;6.806;2022-12-18T05:47:26;-3.00;63.20
4354;DHT22;11018;51.258;6.806;2022-12-18T05:49:51;-3.10;62.80
4354;DHT22;11018;51.258;6.806;2022-12-18T05:52:17;-3.20;63.40
4354;DHT22;11018;51.258;6.806;2022-12-18T05:54:42;-3.10;62.80
4354;DHT22;11018;51.258;6.806;2022-12-18T05:57:08;-3.10;61.90
4354;DHT22;11018;51.258;6.806;2022-12-18T05:59:33;-3.10;61.70
4354;DHT22;11018;51.258;6.806;2022-12-18T06:01:59;-3.20;61.90
4354;DHT22;11018;51.258;6.806;2022-12-18T06:04:27;-3.20;61.60
4354;DHT22;11018;51.258;6.806;2022-12-18T06:06:53;-3.30;62.00
4354;DHT22;11018;51.258;6.806;2022-12-18T06:09:19;-3.40;63.40
4354;DHT22;11018;51.258;6.806;2022-12-18T06:11:45;-3.30;64.50
4354;DHT22;11018;51.258;6.806;2022-12-18T06:14:10;-3.40;63.50
4354;DHT22;11018;51.258;6.806;2022-12-18T06:16:36;-3.40;63.00
4354;DHT22;11018;51.258;6.806;2022-12-18T06:19:03;-3.30;62.60
4354;DHT22;11018;51.258;6.806;2022-12-18T06:21:30;-3.40;62.10
4354;DHT22;11018;51.258;6.806;2022-12-18T06:23:56;-3.30;61.90
4354;DHT22;11018;51.258;6.806;2022-12-18T06:26:22;-3.30;61.60
4354;DHT22;11018;51.258;6.806;2022-12-18T06:28:47;-3.20;60.00
4354;DHT22;11018;51.258;6.806;2022-12-18T06:31:13;-3.20;59.60
4354;DHT22;11018;51.258;6.806;2022-12-18T06:33:39;-3.20;59.20
4354;DHT22;11018;51.258;6.806;2022-12-18T06:36:09;-3.10;59.20
4354;DHT22;11018;51.258;6.806;2022-12-18T06:38:36;-3.10;58.70
4354;DHT22;11018;51.258;6.806;2022-12-18T06:41:13;-3.20;58.40
4354;DHT22;11018;51.258;6.806;2022-12-18T06:43:39;-3.30;59.30
4354;DHT22;11018;51.258;6.806;2022-12-18T06:46:05;-3.50;60.30
4354;DHT22;11018;51.258;6.806;2022-12-18T06:48:31;-3.50;61.30
4354;DHT22;11018;51.258;6.806;2022-12-18T06:50:57;-3.50;60.80
4354;DHT22;11018;51.258;6.806;2022-12-18T06:53:22;-3.60;61.80
4354;DHT22;11018;51.258;6.806;2022-12-18T06:55:49;-3.60;62.70
4354;DHT22;11018;51.258;6.806;2022-12-18T06:58:15;-3.60;63.10
4354;DHT22;11018;51.258;6.806;2022-12-18T07:00:40;-3.60;63.70
4354;DHT22;11018;51.258;6.806;2022-12-18T07:03:06;-3.60;63.20
4354;DHT22;11018;51.258;6.806;2022-12-18T07:05:31;-3.50;62.40
4354;DHT22;11018;51.258;6.806;2022-12-18T07:07:58;-3.60;62.30
4354;DHT22;11018;51.258;6.806;2022-12-18T07:10:23;-3.50;62.30
4354;DHT22;11018;51.258;6.806;2022-12-18T07:12:49;-3.50;61.40
4354;DHT22;11018;51.258;6.806;2022-12-18T07:15:15;-3.50;61.50
4354;DHT22;11018;51.258;6.806;2022-12-18T07:17:40;-3.50;62.50
4354;DHT22;11018;51.258;6.806;2022-12-18T07:20:06;-3.60;63.00
4354;DHT22;11018;51.258;6.806;2022-12-18T07:22:32;-3.50;62.60
4354;DHT22;11018;51.258;6.806;2022-12-18T07:24:57;-3.50;62.60
4354;DHT22;11018;51.258;6.806;2022-12-18T07:27:24;-3.50;63.40
4354;DHT22;11018;51.258;6.806;2022-12-18T07:29:49;-3.30;62.40
4354;DHT22;11018;51.258;6.806;2022-12-18T07:32:15;-3.20;60.70
4354;DHT22;11018;51.258;6.806;2022-12-18T07:34:40;-3.20;59.20
4354;DHT22;11018;51.258;6.806;2022-12-18T07:37:06;-3.20;59.70
4354;DHT22;11018;51.258;6.806;2022-12-18T07:39:32;-3.20;59.90
4354;DHT22;11018;51.258;6.806;2022-12-18T07:41:57;-3.20;59.50
4354;DHT22;11018;51.258;6.806;2022-12-18T07:44:41;-3.20;59.80
4354;DHT22;11018;51.258;6.806;2022-12-18T07:47:07;-3.20;61.40
4354;DHT22;11018;51.258;6.806;2022-12-18T07:49:32;-3.10;60.20
4354;DHT22;11018;51.258;6.806;2022-12-18T07:51:58;-3.10;59.20
4354;DHT22;11018;51.258;6.806;2022-12-18T07:54:24;-3.00;58.20
4354;DHT22;11018;51.258;6.806;2022-12-18T07:56:50;-2.90;56.60
4354;DHT22;11018;51.258;6.806;2022-12-18T07:59:16;-2.90;57.10
4354;DHT22;11018;51.258;6.806;2022-12-18T08:01:41;-2.90;56.70
4354;DHT22;11018;51.258;6.806;2022-12-18T08:04:07;-2.90;56.60
4354;DHT22;11018;51.258;6.806;2022-12-18T08:06:32;-2.90;56.00
4354;DHT22;11018;51.258;6.806;2022-12-18T08:08:58;-2.90;56.30
4354;DHT22;11018;51.258;6.806;2022-12-18T08:11:25;-2.80;56.20
4354;DHT22;11018;51.258;6.806;2022-12-18T08:13:52;-2.70;54.60
4354;DHT22;11018;51.258;6.806;2022-12-18T08:16:18;-2.60;55.40
4354;DHT22;11018;51.258;6.806;2022-12-18T08:18:45;-2.60;55.20
4354;DHT22;11018;51.258;6.806;2022-12-18T08:21:22;-2.40;55.20
4354;DHT22;11018;51.258;6.806;2022-12-18T08:23:49;-2.30;53.90
4354;DHT22;11018;51.258;6.806;2022-12-18T08:26:15;-2.30;52.60
4354;DHT22;11018;51.258;6.806;2022-12-18T08:28:42;-2.30;51.70
4354;DHT22;11018;51.258;6.806;2022-12-18T08:31:08;-2.30;52.30
4354;DHT22;11018;51.258;6.806;2022-12-18T08:33:35;-2.40;52.30
4354;DHT22;11018;51.258;6.806;2022-12-18T08:36:01;-2.30;51.90
4354;DHT22;11018;51.258;6.806;2022-12-18T08:38:27;-2.20;51.20
4354;DHT22;11018;51.258;6.806;2022-12-18T08:41:00;-2.10;51.80
4354;DHT22;11018;51.258;6.806;2022-12-18T08:43:26;-2.20;50.70
4354;DHT22;11018;51.258;6.806;2022-12-18T08:46:11;-2.10;51.80
4354;DHT22;11018;51.258;6.806;2022-12-18T08:48:36;-2.00;51.30
4354;DHT22;11018;51.258;6.806;2022-12-18T08:51:02;-1.80;50.30
4354;DHT22;11018;51.258;6.806;2022-12-18T08:53:27;-1.70;49.40
4354;DHT22;11018;51.258;6.806;2022-12-18T08:55:53;-1.60;49.30
4354;DHT22;11018;51.258;6.806;2022-12-18T08:58:19;-1.50;47.20
4354;DHT22;11018;51.258;6.806;2022-12-18T09:00:45;-1.40;46.00
4354;DHT22;11018;51.258;6.806;2022-12-18T09:03:15;-0.90;45.20
4354;DHT22;11018;51.258;6.806;2022-12-18T09:05:41;-0.20;40.60
4354;DHT22;11018;51.258;6.806;2022-12-18T09:08:07;0.30;38.10
4354;DHT22;11018;51.258;6.806;2022-12-18T09:10:32;0.10;37.10
4354;DHT22;11018;51.258;6.806;2022-12-18T09:12:58;-0.20;38.30
4354;DHT22;11018;51.258;6.806;2022-12-18T09:15:24;-0.40;39.10
4354;DHT22;11018;51.258;6.806;2022-12-18T09:17:49;-0.60;40.10
4354;DHT22;11018;51.258;6.806;2022-12-18T09:20:16;-0.70;41.00
4354;DHT22;11018;51.258;6.806;2022-12-18T09:22:42;-0.80;41.00
4354;DHT22;11018;51.258;6.806;2022-12-18T09:25:07;-0.90;41.90
4354;DHT22;11018;51.258;6.806;2022-12-18T09:27:34;-0.80;41.60
4354;DHT22;11018;51.258;6.806;2022-12-18T09:29:59;-0.70;40.80
4354;DHT22;11018;51.258;6.806;2022-12-18T09:32:25;-0.60;40.70
4354;DHT22;11018;51.258;6.806;2022-12-18T09:34:51;-0.50;39.90
4354;DHT22;11018;51.258;6.806;2022-12-18T09:37:16;-0.40;40.20
4354;DHT22;11018;51.258;6.806;2022-12-18T09:39:42;-0.30;39.50
4354;DHT22;11018;51.258;6.806;2022-12-18T09:42:17;-0.10;38.60
4354;DHT22;11018;51.258;6.806;2022-12-18T09:44:50;0.00;38.00
4354;DHT22;11018;51.258;6.806;2022-12-18T09:47:27;0.10;37.10
4354;DHT22;11018;51.258;6.806;2022-12-18T09:49:58;0.20;37.40
4354;DHT22;11018;51.258;6.806;2022-12-18T09:52:33;0.20;37.00
4354;DHT22;11018;51.258;6.806;2022-12-18T10:00:47;0.40;35.90
4354;DHT22;11018;51.258;6.806;2022-12-18T10:03:14;0.50;36.00
4354;DHT22;11018;51.258;6.806;2022-12-18T10:06:18;0.50;35.00
4354;DHT22;11018;51.258;6.806;2022-12-18T10:09:01;0.60;35.00
4354;DHT22;11018;51.258;6.806;2022-12-18T10:11:52;0.60;34.60
4354;DHT22;11018;51.258;6.806;2022-12-18T10:19:45;0.90;33.90
4354;DHT22;11018;51.258;6.806;2022-12-18T10:27:29;1.20;32.90
4354;DHT22;11018;51.258;6.806;2022-12-18T10:29:56;1.20;32.20
4354;DHT22;11018;51.258;6.806;2022-12-18T10:32:28;1.30;32.40
4354;DHT22;11018;51.258;6.806;2022-12-18T10:34:56;1.40;32.30
4354;DHT22;11018;51.258;6.806;2022-12-18T10:37:25;1.50;31.60
4354;DHT22;11018;51.258;6.806;2022-12-18T10:40:14;1.60;31.90
4354;DHT22;11018;51.258;6.806;2022-12-18T10:42:41;1.60;31.20
4354;DHT22;11018;51.258;6.806;2022-12-18T10:45:13;1.80;31.10
4354;DHT22;11018;51.258;6.806;2022-12-18T10:47:45;1.90;30.80
4354;DHT22;11018;51.258;6.806;2022-12-18T10:50:40;2.10;29.90
4354;DHT22;11018;51.258;6.806;2022-12-18T10:53:18;2.10;29.50
4354;DHT22;11018;51.258;6.806;2022-12-18T10:55:46;2.10;30.20
4354;DHT22;11018;51.258;6.806;2022-12-18T10:58:28;2.20;29.20
4354;DHT22;11018;51.258;6.806;2022-12-18T11:01:09;2.30;29.30
4354;DHT22;11018;51.258;6.806;2022-12-18T11:06:04;2.30;28.30
4354;DHT22;11018;51.258;6.806;2022-12-18T11:08:30;2.30;28.00
4354;DHT22;11018;51.258;6.806;2022-12-18T11:10:56;2.40;28.10
4354;DHT22;11018;51.258;6.806;2022-12-18T11:13:23;2.50;28.00
4354;DHT22;11018;51.258;6.806;2022-12-18T11:15:50;2.50;28.10
4354;DHT22;11018;51.258;6.806;2022-12-18T11:20:55;2.60;26.70
4354;DHT22;11018;51.258;6.806;2022-12-18T11:23:23;2.70;26.80
4354;DHT22;11018;51.258;6.806;2022-12-18T11:25:57;2.70;27.50
4354;DHT22;11018;51.258;6.806;2022-12-18T11:31:28;2.90;26.80
4354;DHT22;11018;51.258;6.806;2022-12-18T11:36:45;3.10;25.80
4354;DHT22;11018;51.258;6.806;2022-12-18T11:39:31;3.00;26.10
4354;DHT22;11018;51.258;6.806;2022-12-18T11:44:45;3.10;26.00
4354;DHT22;11018;51.258;6.806;2022-12-18T11:47:49;3.10;25.50
4354;DHT22;11018;51.258;6.806;2022-12-18T11:50:49;3.00;25.10
4354;DHT22;11018;51.258;6.806;2022-12-18T11:53:16;3.10;26.00
4354;DHT22;11018;51.258;6.806;2022-12-18T11:58:46;3.10;26.40
4354;DHT22;11018;51.258;6.806;2022-12-18T12:07:04;3.10;25.10
4354;DHT22;11018;51.258;6.806;2022-12-18T12:09:50;3.10;25.40
4354;DHT22;11018;51.258;6.806;2022-12-18T12:23:26;3.00;24.80
4354;DHT22;11018;51.258;6.806;2022-12-18T12:26:01;3.00;25.70
4354;DHT22;11018;51.258;6.806;2022-12-18T12:39:11;2.90;25.50
4354;DHT22;11018;51.258;6.806;2022-12-18T12:41:39;2.90;26.60
4354;DHT22;11018;51.258;6.806;2022-12-18T12:44:31;2.80;25.70
4354;DHT22;11018;51.258;6.806;2022-12-18T12:47:01;2.90;25.90
4354;DHT22;11018;51.258;6.806;2022-12-18T12:49:31;2.80;25.90
4354;DHT22;11018;51.258;6.806;2022-12-18T12:52:11;2.80;25.70
4354;DHT22;11018;51.258;6.806;2022-12-18T12:54:38;2.70;26.00
4354;DHT22;11018;51.258;6.806;2022-12-18T12:57:37;2.70;26.10
4354;DHT22;11018;51.258;6.806;2022-12-18T13:00:16;2.70;26.50
4354;DHT22;11018;51.258;6.806;2022-12-18T13:05:44;2.60;26.10
4354;DHT22;11018;51.258;6.806;2022-12-18T13:08:22;2.50;26.10
4354;DHT22;11018;51.258;6.806;2022-12-18T13:10:48;2.60;26.10
4354;DHT22;11018;51.258;6.806;2022-12-18T13:13:15;2.50;27.10
4354;DHT22;11018;51.258;6.806;2022-12-18T13:16:05;2.50;27.00
4354;DHT22;11018;51.258;6.806;2022-12-18T13:18:32;2.50;26.90
4354;DHT22;11018;51.258;6.806;2022-12-18T13:25:53;2.60;26.90
4354;DHT22;11018;51.258;6.806;2022-12-18T13:28:24;2.60;27.00
4354;DHT22;11018;51.258;6.806;2022-12-18T13:31:08;2.60;27.10
4354;DHT22;11018;51.258;6.806;2022-12-18T13:33:40;2.60;27.80
4354;DHT22;11018;51.258;6.806;2022-12-18T13:36:14;2.50;27.10
4354;DHT22;11018;51.258;6.806;2022-12-18T13:38:40;2.50;27.90
4354;DHT22;11018;51.258;6.806;2022-12-18T13:41:26;2.40;28.30
4354;DHT22;11018;51.258;6.806;2022-12-18T13:43:57;2.50;27.70
4354;DHT22;11018;51.258;6.806;2022-12-18T13:46:48;2.50;28.20
4354;DHT22;11018;51.258;6.806;2022-12-18T13:49:40;2.40;27.90
4354;DHT22;11018;51.258;6.806;2022-12-18T13:52:25;2.40;27.20
4354;DHT22;11018;51.258;6.806;2022-12-18T13:54:54;2.40;27.10
4354;DHT22;11018;51.258;6.806;2022-12-18T13:57:39;2.30;27.10
4354;DHT22;11018;51.258;6.806;2022-12-18T14:00:25;2.40;28.10
4354;DHT22;11018;51.258;6.806;2022-12-18T14:02:51;2.30;27.60
4354;DHT22;11018;51.258;6.806;2022-12-18T14:05:31;2.30;27.80
4354;DHT22;11018;51.258;6.806;2022-12-18T14:08:11;2.30;28.30
4354;DHT22;11018;51.258;6.806;2022-12-18T14:10:45;2.30;28.40
4354;DHT22;11018;51.258;6.806;2022-12-18T14:13:39;2.30;28.20
4354;DHT22;11018;51.258;6.806;2022-12-18T14:16:04;2.30;28.40
4354;DHT22;11018;51.258;6.806;2022-12-18T14:18:46;2.30;28.30
4354;DHT22;11018;51.258;6.806;2022-12-18T14:21:25;2.20;29.00
4354;DHT22;11018;51.258;6.806;2022-12-18T14:24:06;2.30;32.00
4354;DHT22;11018;51.258;6.806;2022-12-18T14:26:32;2.20;29.90
4354;DHT22;11018;51.258;6.806;2022-12-18T14:29:00;2.20;30.10
4354;DHT22;11018;51.258;6.806;2022-12-18T14:31:29;2.20;28.80
4354;DHT22;11018;51.258;6.806;2022-12-18T14:33:55;2.10;28.90
4354;DHT22;11018;51.258;6.806;2022-12-18T14:36:26;2.10;28.90
4354;DHT22;11018;51.258;6.806;2022-12-18T14:38:57;2.10;28.60
4354;DHT22;11018;51.258;6.806;2022-12-18T14:41:23;2.00;29.70
4354;DHT22;11018;51.258;6.806;2022-12-18T14:43:51;1.90;29.30
4354;DHT22;11018;51.258;6.806;2022-12-18T14:46:36;1.90;30.20
4354;DHT22;11018;51.258;6.806;2022-12-18T14:49:14;1.90;29.50
4354;DHT22;11018;51.258;6.806;2022-12-18T14:51:50;1.90;30.10
4354;DHT22;11018;51.258;6.806;2022-12-18T14:54:19;1.90;29.80
4354;DHT22;11018;51.258;6.806;2022-12-18T14:57:32;1.90;29.80
4354;DHT22;11018;51.258;6.806;2022-12-18T14:59:32;1.90;30.00
4354;DHT22;11018;51.258;6.806;2022-12-18T15:02:21;1.80;29.40
4354;DHT22;11018;51.258;6.806;2022-12-18T15:04:48;1.80;29.80
4354;DHT22;11018;51.258;6.806;2022-12-18T15:07:24;1.80;29.80
4354;DHT22;11018;51.258;6.806;2022-12-18T15:10:13;1.70;29.90
4354;DHT22;11018;51.258;6.806;2022-12-18T15:17:59;1.70;29.50
4354;DHT22;11018;51.258;6.806;2022-12-18T15:20:25;1.60;29.90
4354;DHT22;11018;51.258;6.806;2022-12-18T15:22:51;1.60;30.30
4354;DHT22;11018;51.258;6.806;2022-12-18T15:25:28;1.60;30.20
4354;DHT22;11018;51.258;6.806;2022-12-18T15:27:55;1.70;29.40
4354;DHT22;11018;51.258;6.806;2022-12-18T15:30:22;1.60;29.40
4354;DHT22;11018;51.258;6.806;2022-12-18T15:32:49;1.60;31.60
4354;DHT22;11018;51.258;6.806;2022-12-18T15:37:41;1.60;30.70
4354;DHT22;11018;51.258;6.806;2022-12-18T15:40:11;1.60;30.90
4354;DHT22;11018;51.258;6.806;2022-12-18T15:42:37;1.60;30.50
4354;DHT22;11018;51.258;6.806;2022-12-18T15:45:21;1.60;30.80
4354;DHT22;11018;51.258;6.806;2022-12-18T15:47:47;1.60;30.20
4354;DHT22;11018;51.258;6.806;2022-12-18T15:50:12;1.60;29.90
4354;DHT22;11018;51.258;6.806;2022-12-18T15:52:43;1.50;30.50
4354;DHT22;11018;51.258;6.806;2022-12-18T15:55:22;1.50;30.50
4354;DHT22;11018;51.258;6.806;2022-12-18T15:58:07;1.40;30.90
4354;DHT22;11018;51.258;6.806;2022-12-18T16:00:34;1.40;30.70
4354;DHT22;11018;51.258;6.806;2022-12-18T16:03:01;1.50;30.90
4354;DHT22;11018;51.258;6.806;2022-12-18T16:05:27;1.50;30.70
4354;DHT22;11018;51.258;6.806;2022-12-18T16:07:53;1.50;30.70
4354;DHT22;11018;51.258;6.806;2022-12-18T16:10:19;1.50;30.70
4354;DHT22;11018;51.258;6.806;2022-12-18T16:12:44;1.50;30.40
4354;DHT22;11018;51.258;6.806;2022-12-18T16:15:12;1.40;30.60
4354;DHT22;11018;51.258;6.806;2022-12-18T16:17:39;1.30;31.30
4354;DHT22;11018;51.258;6.806;2022-12-18T16:20:15;1.30;31.20
4354;DHT22;11018;51.258;6.806;2022-12-18T16:22:42;1.30;31.60
4354;DHT22;11018;51.258;6.806;2022-12-18T16:25:22;1.40;31.30
4354;DHT22;11018;51.258;6.806;2022-12-18T16:27:48;1.30;32.00
4354;DHT22;11018;51.258;6.806;2022-12-18T16:30:15;1.30;31.60
4354;DHT22;11018;51.258;6.806;2022-12-18T16:32:41;1.30;32.40
4354;DHT22;11018;51.258;6.806;2022-12-18T16:35:12;1.20;32.20
4354;DHT22;11018;51.258;6.806;2022-12-18T16:37:39;1.30;33.10
4354;DHT22;11018;51.258;6.806;2022-12-18T16:40:07;1.20;33.40
4354;DHT22;11018;51.258;6.806;2022-12-18T16:42:35;1.20;33.60
4354;DHT22;11018;51.258;6.806;2022-12-18T16:45:00;1.20;33.10
4354;DHT22;11018;51.258;6.806;2022-12-18T16:47:26;1.30;34.10
4354;DHT22;11018;51.258;6.806;2022-12-18T16:49:52;1.30;34.30
4354;DHT22;11018;51.258;6.806;2022-12-18T16:52:19;1.20;34.30
4354;DHT22;11018;51.258;6.806;2022-12-18T16:54:44;1.20;34.60
4354;DHT22;11018;51.258;6.806;2022-12-18T16:57:16;1.20;34.50
4354;DHT22;11018;51.258;6.806;2022-12-18T16:59:41;1.20;35.70
4354;DHT22;11018;51.258;6.806;2022-12-18T17:02:16;1.30;36.10
4354;DHT22;11018;51.258;6.806;2022-12-18T17:04:42;1.30;35.40
4354;DHT22;11018;51.258;6.806;2022-12-18T17:07:09;1.20;35.00
4354;DHT22;11018;51.258;6.806;2022-12-18T17:09:35;1.20;35.70
4354;DHT22;11018;51.258;6.806;2022-12-18T17:12:00;1.20;35.50
4354;DHT22;11018;51.258;6.806;2022-12-18T17:14:26;1.30;36.60
4354;DHT22;11018;51.258;6.806;2022-12-18T17:16:52;1.20;36.20
4354;DHT22;11018;51.258;6.806;2022-12-18T17:19:18;1.20;36.40
4354;DHT22;11018;51.258;6.806;2022-12-18T17:21:47;1.20;37.40
4354;DHT22;11018;51.258;6.806;2022-12-18T17:24:12;1.10;36.80
4354;DHT22;11018;51.258;6.806;2022-12-18T17:26:38;1.20;38.30
4354;DHT22;11018;51.258;6.806;2022-12-18T17:29:04;1.20;38.60
4354;DHT22;11018;51.258;6.806;2022-12-18T17:31:30;1.20;37.40
4354;DHT22;11018;51.258;6.806;2022-12-18T17:33:57;1.20;37.10
4354;DHT22;11018;51.258;6.806;2022-12-18T17:36:24;1.20;37.50
4354;DHT22;11018;51.258;6.806;2022-12-18T17:38:54;1.20;37.20
4354;DHT22;11018;51.258;6.806;2022-12-18T17:41:20;1.20;38.00
4354;DHT22;11018;51.258;6.806;2022-12-18T17:43:59;1.20;37.20
4354;DHT22;11018;51.258;6.806;2022-12-18T17:46:25;1.10;37.90
4354;DHT22;11018;51.258;6.806;2022-12-18T17:48:54;1.10;38.00